createdAt,value
2022-11-14T00:22:24.387Z,74.62
2022-11-14T00:24:50.917Z,58.10
2022-11-14T00:27:17.532Z,88.18
2022-11-14T00:29:44.146Z,45.17
2022-11-14T00:34:59.547Z,49.47
2022-11-14T00:37:27.172Z,96.32
2022-11-14T00:39:53.723Z,95.87
2022-11-14T00:42:20.285Z,57.90
2022-11-14T00:44:46.886Z,75.90
2022-11-14T00:47:13.439Z,76.55
2022-11-14T00:50:04.358Z,75.00
2022-11-14T00:52:51.108Z,133.32
2022-11-14T00:57:52.875Z,62.92
2022-11-14T01:00:19.562Z,52.30
2022-11-14T01:02:46.106Z,82.03
2022-11-14T01:05:12.749Z,87.88
2022-11-14T01:10:14.660Z,59.92
2022-11-14T01:15:43.644Z,46.00
2022-11-14T01:26:55.525Z,54.30
2022-11-14T01:29:22.193Z,49.53
2022-11-14T01:39:58.463Z,50.70
2022-11-14T01:42:27.385Z,55.22
2022-11-14T01:47:42.556Z,55.92
2022-11-14T01:50:10.572Z,50.17
2022-11-14T01:52:59.151Z,58.83
2022-11-14T01:55:27.401Z,63.65
2022-11-14T01:57:54.030Z,61.92
2022-11-14T02:00:20.746Z,68.47
2022-11-14T02:02:48.076Z,56.42
2022-11-14T02:05:17.881Z,54.55
2022-11-14T02:07:44.679Z,71.78
2022-11-14T02:10:17.772Z,59.25
2022-11-14T02:15:12.086Z,58.50
2022-11-14T02:17:38.706Z,60.50
2022-11-14T02:20:28.614Z,57.90
2022-11-14T02:22:55.575Z,87.07
2022-11-14T02:25:22.119Z,72.53
2022-11-14T02:27:49.606Z,63.63
2022-11-14T02:30:19.750Z,49.38
2022-11-14T02:36:10.455Z,59.00
2022-11-14T02:38:58.593Z,50.55
2022-11-14T02:41:25.312Z,69.47
2022-11-14T02:43:51.849Z,56.97
2022-11-14T02:46:22.875Z,51.92
2022-11-14T02:49:04.747Z,51.97
2022-11-14T02:51:31.271Z,65.45
2022-11-14T02:53:57.863Z,57.92
2022-11-14T02:56:24.633Z,58.78
2022-11-14T02:58:51.210Z,46.72
2022-11-14T03:01:21.797Z,46.20
2022-11-14T03:04:06.971Z,47.92
2022-11-14T03:06:44.313Z,45.38
2022-11-14T03:09:10.864Z,44.78
2022-11-14T03:11:38.932Z,41.10
2022-11-14T03:14:05.578Z,43.67
2022-11-14T03:16:32.190Z,46.50
2022-11-14T03:18:58.701Z,36.80
2022-11-14T03:22:09.111Z,59.85
2022-11-14T03:25:06.866Z,49.83
2022-11-14T03:27:33.409Z,59.45
2022-11-14T03:29:59.989Z,45.95
2022-11-14T03:32:26.708Z,46.65
2022-11-14T03:34:53.306Z,49.00
2022-11-14T03:37:19.887Z,69.22
2022-11-14T03:39:46.414Z,96.63
2022-11-14T03:44:54.363Z,129.23
2022-11-14T03:47:20.979Z,100.20
2022-11-14T03:49:47.507Z,100.35
2022-11-14T03:52:14.079Z,67.62
2022-11-14T03:54:40.610Z,95.85
2022-11-14T03:57:19.443Z,104.65
2022-11-14T04:00:10.991Z,113.00
2022-11-14T04:02:37.593Z,70.97
2022-11-14T04:05:04.431Z,90.47
2022-11-14T04:07:31.069Z,152.55
2022-11-14T04:09:57.637Z,53.72
2022-11-14T04:12:24.331Z,88.18
2022-11-14T04:14:50.879Z,84.35
2022-11-14T04:19:59.588Z,163.25
2022-11-14T04:28:03.601Z,152.73
2022-11-14T04:30:48.602Z,88.20
2022-11-14T04:49:47.399Z,113.93
2022-11-14T04:52:13.934Z,63.95
2022-11-14T04:54:40.540Z,51.28
2022-11-14T04:57:07.099Z,89.65
2022-11-14T04:59:33.737Z,71.65
2022-11-14T05:02:00.302Z,78.47
2022-11-14T05:04:26.905Z,62.72
2022-11-14T05:06:53.546Z,59.90
2022-11-14T05:09:20.112Z,33.65
2022-11-14T05:11:46.707Z,43.38
2022-11-14T05:14:32.321Z,45.53
2022-11-14T05:16:59.136Z,75.97
2022-11-14T05:19:25.692Z,34.25
2022-11-14T05:21:52.289Z,40.20
2022-11-14T05:24:19.893Z,39.03
2022-11-14T05:27:23.443Z,42.72
2022-11-14T05:30:12.224Z,69.72
2022-11-14T05:32:39.037Z,40.50
2022-11-14T05:35:06.231Z,39.42
2022-11-14T05:37:34.478Z,45.17
2022-11-14T05:40:01.101Z,42.85
2022-11-14T05:42:28.335Z,54.08
2022-11-14T05:44:54.870Z,63.50
2022-11-14T05:47:21.491Z,55.08
2022-11-14T05:49:48.052Z,55.22
2022-11-14T05:52:14.740Z,51.90
2022-11-14T05:54:41.298Z,64.68
2022-11-14T05:57:08.030Z,58.15
2022-11-14T05:59:34.631Z,65.00
2022-11-14T06:02:01.264Z,54.95
2022-11-14T06:04:28.028Z,43.95
2022-11-14T06:06:54.665Z,78.72
2022-11-14T06:09:21.396Z,43.20
2022-11-14T06:11:47.940Z,39.63
2022-11-14T06:14:14.679Z,41.92
2022-11-14T06:16:41.332Z,39.22
2022-11-14T06:19:07.879Z,41.67
2022-11-14T06:21:34.499Z,39.90
2022-11-14T06:24:01.015Z,45.60
2022-11-14T06:26:32.848Z,42.03
2022-11-14T06:29:00.602Z,41.63
2022-11-14T06:31:27.853Z,39.10
2022-11-14T06:33:54.860Z,40.47
2022-11-14T06:36:21.427Z,40.00
2022-11-14T06:38:48.066Z,41.70
2022-11-14T06:41:19.841Z,57.92
2022-11-14T06:43:49.868Z,42.78
2022-11-14T06:46:19.544Z,37.28
2022-11-14T06:48:47.735Z,61.90
2022-11-14T06:51:16.301Z,52.50
2022-11-14T06:53:43.497Z,62.62
2022-11-14T06:56:12.250Z,68.82
2022-11-14T06:58:44.996Z,71.47
2022-11-14T07:01:17.350Z,38.25
2022-11-14T07:03:44.684Z,56.53
2022-11-14T07:06:13.896Z,40.67
2022-11-14T07:08:40.667Z,51.10
2022-11-14T07:11:09.719Z,41.65
2022-11-14T07:13:36.770Z,75.68
2022-11-14T07:32:40.552Z,43.40
2022-11-14T07:35:07.426Z,42.85
2022-11-14T07:37:33.998Z,40.75
2022-11-14T07:40:00.682Z,40.25
2022-11-14T07:42:29.880Z,40.17
2022-11-14T07:44:56.445Z,38.35
2022-11-14T07:47:23.060Z,45.20
2022-11-14T07:49:49.606Z,37.50
2022-11-14T07:52:16.192Z,39.75
2022-11-14T08:02:31.655Z,37.28
2022-11-14T08:10:24.468Z,39.38
2022-11-14T08:13:24.838Z,37.30
2022-11-14T08:18:21.259Z,33.95
2022-11-14T08:20:47.979Z,34.83
2022-11-14T08:23:15.551Z,40.28
2022-11-14T08:25:42.874Z,33.10
2022-11-14T08:28:09.969Z,35.20
2022-11-14T08:31:17.295Z,33.25
2022-11-14T08:34:05.837Z,34.42
2022-11-14T08:36:32.448Z,37.88
2022-11-14T08:39:02.011Z,35.60
2022-11-14T08:41:28.995Z,35.50
2022-11-14T08:43:55.607Z,34.30
2022-11-14T08:46:22.166Z,38.75
2022-11-14T08:48:48.690Z,32.80
2022-11-14T08:51:15.266Z,34.75
2022-11-14T08:53:41.814Z,32.38
2022-11-14T08:56:10.713Z,34.40
2022-11-14T08:58:37.418Z,31.45
2022-11-14T09:01:06.712Z,31.48
2022-11-14T09:03:34.427Z,36.47
2022-11-14T09:06:02.083Z,37.00
2022-11-14T09:08:29.691Z,34.25
2022-11-14T09:11:04.825Z,32.75
2022-11-14T09:13:33.961Z,34.72
2022-11-14T09:16:00.596Z,32.15
2022-11-14T09:18:27.367Z,34.42
2022-11-14T09:21:00.150Z,33.28
2022-11-14T09:23:26.918Z,33.78
2022-11-14T09:25:54.860Z,30.73
2022-11-14T09:28:21.553Z,33.63
2022-11-14T09:30:48.113Z,33.45
2022-11-14T09:33:14.757Z,30.58
2022-11-14T09:35:42.585Z,34.65
2022-11-14T09:38:11.835Z,31.30
2022-11-14T09:41:06.219Z,31.20
2022-11-14T09:44:02.209Z,34.97
2022-11-14T09:46:42.117Z,27.67
2022-11-14T09:49:18.776Z,31.00
2022-11-14T09:51:51.503Z,29.42
2022-11-14T09:54:22.983Z,35.38
2022-11-14T09:56:50.207Z,29.80
2022-11-14T09:59:17.242Z,28.10
2022-11-14T10:01:57.663Z,29.33
2022-11-14T10:04:28.683Z,30.15
2022-11-14T10:07:27.754Z,30.20
2022-11-14T10:10:09.888Z,33.45
2022-11-14T10:12:56.201Z,30.42
2022-11-14T10:15:41.057Z,28.42
2022-11-14T10:18:29.679Z,32.88
2022-11-14T10:21:18.641Z,28.40
2022-11-14T10:23:47.861Z,28.45
2022-11-14T10:26:26.207Z,29.67
2022-11-14T10:29:14.342Z,29.75
2022-11-14T10:32:10.683Z,28.60
2022-11-14T10:34:47.912Z,30.98
2022-11-14T10:37:40.368Z,29.55
2022-11-14T10:40:20.155Z,28.00
2022-11-14T10:42:51.115Z,30.67
2022-11-14T10:45:33.036Z,28.27
2022-11-14T10:48:04.123Z,29.37
2022-11-14T10:50:46.419Z,27.25
2022-11-14T10:53:34.113Z,27.67
2022-11-14T10:56:05.071Z,27.50
2022-11-14T10:58:51.365Z,27.55
2022-11-14T11:05:04.769Z,25.37
2022-11-14T11:15:52.212Z,27.83
2022-11-14T11:18:28.716Z,25.75
2022-11-14T11:21:08.086Z,25.08
2022-11-14T11:23:35.310Z,26.52
2022-11-14T11:26:36.603Z,25.35
2022-11-14T11:29:10.380Z,26.98
2022-11-14T11:31:57.949Z,25.10
2022-11-14T11:34:29.231Z,20.55
2022-11-14T11:37:02.958Z,25.60
2022-11-14T11:39:33.287Z,24.30
2022-11-14T11:42:10.125Z,25.05
2022-11-14T11:44:46.263Z,25.17
2022-11-14T11:47:16.927Z,24.58
2022-11-14T11:49:54.305Z,29.73
2022-11-14T11:52:31.119Z,25.90
2022-11-14T11:55:09.636Z,24.77
2022-11-14T11:57:43.524Z,23.50
2022-11-14T12:00:18.789Z,25.65
2022-11-14T12:02:50.100Z,27.92
2022-11-14T12:05:36.943Z,20.00
2022-11-14T12:08:07.530Z,23.25
2022-11-14T12:10:38.693Z,20.08
2022-11-14T12:13:05.143Z,22.05
2022-11-14T12:15:50.351Z,20.10
2022-11-14T12:18:36.361Z,20.70
2022-11-14T12:21:13.239Z,20.05
2022-11-14T12:23:51.889Z,19.75
2022-11-14T12:26:36.778Z,19.48
2022-11-14T12:29:43.847Z,16.80
2022-11-14T12:42:49.815Z,18.40
2022-11-14T12:45:41.321Z,16.65
2022-11-14T12:48:20.963Z,19.98
2022-11-14T12:50:47.919Z,18.30
2022-11-14T12:53:38.646Z,17.65
2022-11-14T12:56:31.417Z,16.95
2022-11-14T12:59:10.224Z,18.65
2022-11-14T13:01:44.396Z,16.67
2022-11-14T13:04:14.054Z,17.42
2022-11-14T13:06:55.909Z,16.35
2022-11-14T13:09:28.691Z,19.65
2022-11-14T13:12:14.389Z,17.65
2022-11-14T13:15:48.600Z,16.52
2022-11-14T13:18:38.328Z,17.90
2022-11-14T13:21:46.085Z,16.58
2022-11-14T13:24:16.289Z,16.55
2022-11-14T13:26:48.599Z,18.70
2022-11-14T13:29:39.757Z,15.50
2022-11-14T13:32:11.315Z,15.20
2022-11-14T13:34:46.405Z,15.98
2022-11-14T13:37:42.553Z,17.25
2022-11-14T13:40:19.259Z,14.77
2022-11-14T13:43:07.165Z,14.75
2022-11-14T13:46:01.678Z,14.23
2022-11-14T13:48:28.139Z,15.38
2022-11-14T13:51:15.600Z,16.17
2022-11-14T13:53:49.552Z,14.70
2022-11-14T13:56:24.919Z,16.90
2022-11-14T13:59:10.303Z,14.18
2022-11-14T14:02:29.445Z,15.88
2022-11-14T14:05:04.730Z,14.40
2022-11-14T14:07:55.277Z,13.32
2022-11-14T14:10:38.143Z,14.63
2022-11-14T14:13:13.879Z,13.40
2022-11-14T14:16:12.641Z,16.87
2022-11-14T14:19:01.516Z,16.52
2022-11-14T14:21:49.968Z,15.45
2022-11-14T14:24:44.053Z,18.12
2022-11-14T14:27:16.292Z,16.30
2022-11-14T14:30:11.673Z,16.40
2022-11-14T14:32:38.331Z,17.45
2022-11-14T14:35:40.456Z,19.60
2022-11-14T14:38:12.828Z,25.88
2022-11-14T14:40:42.009Z,23.83
2022-11-14T14:43:21.596Z,25.02
2022-11-14T14:45:54.616Z,21.92
2022-11-14T14:51:00.040Z,25.60
2022-11-14T14:53:30.129Z,25.35
2022-11-14T14:55:58.269Z,22.77
2022-11-14T14:58:30.675Z,24.83
2022-11-14T15:01:03.885Z,24.70
2022-11-14T15:03:38.577Z,21.92
2022-11-14T15:06:18.109Z,27.98
2022-11-14T15:09:03.001Z,26.00
2022-11-14T15:11:32.748Z,24.55
2022-11-14T15:14:02.050Z,23.87
2022-11-14T15:16:29.830Z,20.65
2022-11-14T15:18:58.193Z,22.73
2022-11-14T15:21:27.333Z,26.85
2022-11-14T15:24:15.794Z,26.95
2022-11-14T15:26:46.590Z,23.65
2022-11-14T15:29:27.322Z,35.42
2022-11-14T15:32:00.139Z,45.92
2022-11-14T15:34:36.641Z,46.72
2022-11-14T15:37:16.503Z,39.75
2022-11-14T15:39:44.447Z,35.28
2022-11-14T15:42:29.111Z,34.92
2022-11-14T15:44:56.485Z,34.60
2022-11-14T15:47:25.127Z,29.55
2022-11-14T15:50:01.096Z,26.87
2022-11-14T15:52:38.924Z,25.80
2022-11-14T15:55:17.433Z,26.20
2022-11-14T15:57:48.406Z,32.10
2022-11-14T16:00:23.015Z,33.50
2022-11-14T16:03:11.814Z,31.80
2022-11-14T16:05:38.350Z,35.95
2022-11-14T16:08:05.230Z,38.65
2022-11-14T16:10:31.766Z,36.33
2022-11-14T16:12:58.325Z,35.20
2022-11-14T16:15:24.969Z,36.20
2022-11-14T16:17:51.539Z,43.08
2022-11-14T16:20:27.289Z,55.35
2022-11-14T16:22:55.938Z,53.90
2022-11-14T16:25:30.116Z,62.35
2022-11-14T16:27:56.959Z,65.10
2022-11-14T16:30:25.565Z,62.95
2022-11-14T16:32:52.870Z,57.55
2022-11-14T16:35:20.756Z,62.47
2022-11-14T16:37:47.667Z,49.40
2022-11-14T16:40:17.386Z,54.10
2022-11-14T16:42:44.425Z,54.95
2022-11-14T16:45:11.279Z,56.58
2022-11-14T16:47:39.386Z,47.00
2022-11-14T16:50:06.696Z,47.60
2022-11-14T16:52:33.371Z,47.53
2022-11-14T16:54:59.946Z,46.65
2022-11-14T16:57:26.572Z,48.90
2022-11-14T16:59:53.138Z,50.17
2022-11-14T17:02:19.789Z,42.88
2022-11-14T17:04:46.904Z,36.58
2022-11-14T17:07:16.750Z,40.83
2022-11-14T17:09:46.767Z,37.45
2022-11-14T17:12:13.356Z,40.83
2022-11-14T17:14:40.017Z,39.40
2022-11-14T17:17:06.590Z,54.78
2022-11-14T17:19:33.162Z,47.60
2022-11-14T17:21:59.688Z,41.95
2022-11-14T17:24:31.140Z,41.10
2022-11-14T17:26:58.180Z,38.40
2022-11-14T17:29:24.712Z,40.25
2022-11-14T17:31:51.282Z,102.10
2022-11-14T17:34:17.913Z,100.57
2022-11-14T17:36:44.604Z,71.35
2022-11-14T17:39:11.136Z,68.72
2022-11-14T17:41:38.691Z,47.47
2022-11-14T17:44:05.352Z,46.35
2022-11-14T17:46:32.269Z,38.97
2022-11-14T17:48:59.270Z,38.03
2022-11-14T17:51:25.798Z,40.78
2022-11-14T17:53:52.749Z,39.85
2022-11-14T17:56:21.942Z,36.10
2022-11-14T17:58:53.086Z,36.95
2022-11-14T18:01:22.376Z,39.85
2022-11-14T18:03:50.032Z,37.55
2022-11-14T18:06:20.114Z,39.78
2022-11-14T18:08:47.554Z,35.95
2022-11-14T18:11:16.184Z,40.85
2022-11-14T18:13:43.536Z,41.05
2022-11-14T18:16:18.164Z,39.28
2022-11-14T18:18:45.370Z,38.72
2022-11-14T18:21:17.374Z,40.78
2022-11-14T18:23:44.926Z,42.28
2022-11-14T18:26:17.102Z,40.63
2022-11-14T18:28:43.973Z,42.75
2022-11-14T18:31:11.898Z,39.53
2022-11-14T18:33:39.386Z,55.80
2022-11-14T18:36:10.307Z,47.53
2022-11-14T18:38:37.139Z,44.53
2022-11-14T18:41:08.151Z,47.47
2022-11-14T18:43:35.205Z,52.05
2022-11-14T18:46:09.129Z,58.05
2022-11-14T18:48:37.568Z,51.22
2022-11-14T18:51:06.816Z,51.30
2022-11-14T18:53:35.033Z,54.20
2022-11-14T18:56:26.946Z,105.28
2022-11-14T18:58:55.536Z,57.85
2022-11-14T19:01:26.153Z,64.22
2022-11-14T19:03:56.934Z,69.75
2022-11-14T19:06:23.860Z,73.80
2022-11-14T19:08:51.112Z,54.58
2022-11-14T19:11:36.723Z,75.05
2022-11-14T19:14:05.623Z,54.33
2022-11-14T19:16:33.791Z,59.08
2022-11-14T19:19:01.146Z,52.58
2022-11-14T19:21:28.498Z,52.28
2022-11-14T19:23:55.263Z,50.78
2022-11-14T19:26:22.840Z,51.85
2022-11-14T19:28:49.454Z,49.88
2022-11-14T19:31:16.782Z,47.28
2022-11-14T19:56:40.395Z,47.13
2022-11-14T20:04:58.354Z,48.25
2022-11-14T20:07:25.075Z,44.47
2022-11-14T20:09:51.755Z,43.08
2022-11-14T20:12:18.391Z,48.30
2022-11-14T20:14:45.001Z,43.42
2022-11-14T20:17:12.630Z,48.78
2022-11-14T20:19:39.251Z,56.03
2022-11-14T20:22:06.639Z,51.33
2022-11-14T20:25:30.829Z,59.50
2022-11-14T20:30:44.047Z,59.03
2022-11-14T20:33:11.089Z,51.08
2022-11-14T20:35:38.647Z,50.05
2022-11-14T20:38:05.980Z,47.70
2022-11-14T20:40:33.069Z,52.72
2022-11-14T20:43:00.287Z,46.80
2022-11-14T20:45:28.255Z,68.25
2022-11-14T20:47:55.265Z,53.47
2022-11-14T20:50:22.155Z,57.20
2022-11-14T20:52:48.865Z,150.43
2022-11-14T20:55:15.905Z,80.07
2022-11-14T20:57:45.512Z,64.18
2022-11-14T21:00:12.503Z,81.12
2022-11-14T21:02:39.109Z,62.00
2022-11-14T21:05:06.161Z,110.25
2022-11-14T21:07:32.829Z,71.28
2022-11-14T21:10:17.770Z,86.75
2022-11-14T21:13:04.338Z,110.05
2022-11-14T21:15:33.690Z,87.32
2022-11-14T21:18:00.413Z,66.72
2022-11-14T21:20:27.071Z,73.10
2022-11-14T21:22:53.629Z,55.72
2022-11-14T21:25:20.155Z,107.50
2022-11-14T21:28:08.646Z,137.88
2022-11-14T21:30:35.251Z,113.93
2022-11-14T21:33:01.752Z,65.25
2022-11-14T21:35:31.848Z,100.12
2022-11-14T21:41:50.123Z,93.70
2022-11-14T21:44:27.162Z,61.08
2022-11-14T21:46:53.703Z,106.78
2022-11-14T21:49:20.316Z,59.85
2022-11-14T21:51:48.435Z,65.68
2022-11-14T21:54:15.139Z,56.15
2022-11-14T21:56:41.761Z,57.28
2022-11-14T22:07:14.369Z,100.90
2022-11-14T22:09:45.357Z,73.60
2022-11-14T22:12:30.615Z,74.20
2022-11-14T22:15:43.095Z,68.07
2022-11-14T22:18:29.662Z,94.22
2022-11-14T22:20:56.364Z,73.32
2022-11-14T22:23:22.907Z,104.87
2022-11-14T22:25:56.039Z,64.55
2022-11-14T22:28:31.623Z,140.95
2022-11-14T22:31:05.135Z,78.80
2022-11-14T22:33:36.373Z,51.20
2022-11-14T22:36:07.986Z,57.13
2022-11-14T22:38:36.152Z,75.68
2022-11-14T22:41:04.288Z,52.55
2022-11-14T22:43:33.249Z,100.03
2022-11-14T22:46:00.969Z,110.50
2022-11-14T22:48:30.929Z,99.97
2022-11-14T22:51:03.483Z,197.37
2022-11-14T22:53:32.824Z,200.48
2022-11-14T22:56:00.404Z,200.55
2022-11-14T22:58:31.302Z,90.40
2022-11-14T23:01:01.170Z,78.70
2022-11-14T23:03:28.646Z,74.32
2022-11-14T23:05:55.214Z,50.33
2022-11-14T23:08:22.363Z,54.10
2022-11-14T23:10:49.155Z,76.32
2022-11-14T23:13:15.783Z,73.30
2022-11-14T23:15:47.884Z,90.82
2022-11-14T23:18:14.774Z,46.60
2022-11-14T23:20:41.373Z,47.67
2022-11-14T23:23:07.937Z,53.85
2022-11-14T23:25:36.857Z,52.25
2022-11-14T23:28:18.743Z,52.05
2022-11-14T23:30:45.282Z,78.00
2022-11-14T23:33:11.809Z,52.10
2022-11-14T23:35:38.339Z,46.97
2022-11-14T23:41:55.895Z,45.08
2022-11-14T23:44:22.565Z,43.30
2022-11-14T23:46:49.123Z,42.72
2022-11-14T23:49:15.720Z,39.97
2022-11-14T23:51:42.304Z,37.97
2022-11-14T23:54:08.973Z,42.05
2022-11-14T23:56:35.494Z,38.88
2022-11-14T23:59:02.068Z,43.35
